Fort Saskatchewan, Canada
Current Conditions -  °F | °C
As of 3:00 AM on Monday 20 Oct 2014 (Local Time) from CYED Reporting Station
Clear Clear  
Wind Chill: 37°   Ceiling: Unl
Heat Index: 41°   Visibility: 9mi
Dew Point: 36°   Wind: 6mph
Humidity: 81%   Direction: 230°SW
Pressure: 29.57"   Gusts: NA
Location:  53.71°N, 113.21°W
Report Text: CYED 200900Z AUTO 23005KT 9SM CLR 05/02 A2957 RMK SLP025
Loading
Personal Weather Stations






























Interactive Weather Map
Tropical Storm Tracking
New forecast layout! Learn more

10-Day Weather Forecast

Advertisements
Track Severe Weather on mobile